createdAt,value
2018-09-19T00:00:17.746Z,64.9
2018-09-19T00:01:19.104Z,64.6
2018-09-19T00:02:20.462Z,64.7
2018-09-19T00:03:21.820Z,64.7
2018-09-19T00:04:23.188Z,64.9
2018-09-19T00:05:24.551Z,65.1
2018-09-19T00:06:25.922Z,65.2
2018-09-19T00:07:27.292Z,65.3
2018-09-19T00:08:28.643Z,65.7
2018-09-19T00:09:30.014Z,65.4
2018-09-19T00:10:31.373Z,65.4
2018-09-19T00:11:32.739Z,66.0
2018-09-19T00:12:34.117Z,66.0
2018-09-19T00:13:35.463Z,66.4
2018-09-19T00:14:36.833Z,66.3
2018-09-19T00:15:38.192Z,66.7
2018-09-19T00:16:39.554Z,66.8
2018-09-19T00:17:40.919Z,67.3
2018-09-19T00:18:42.275Z,67.0
2018-09-19T00:19:43.653Z,67.2
2018-09-19T00:20:44.997Z,67.0
2018-09-19T00:21:46.499Z,67.4
2018-09-19T00:22:47.732Z,67.6
2018-09-19T00:23:49.094Z,67.7
2018-09-19T00:24:50.459Z,68.1
2018-09-19T00:25:51.813Z,68.0
2018-09-19T00:26:53.182Z,68.6
2018-09-19T00:27:54.548Z,68.7
2018-09-19T00:28:55.970Z,68.7
2018-09-19T00:29:57.269Z,68.1
2018-09-19T00:30:58.636Z,68.2
2018-09-19T00:32:00.002Z,68.2
2018-09-19T00:33:01.366Z,68.7
2018-09-19T00:34:02.736Z,68.5
2018-09-19T00:35:04.098Z,68.5
2018-09-19T00:36:05.456Z,69.2
2018-09-19T00:37:06.822Z,69.1
2018-09-19T00:38:08.198Z,69.3
2018-09-19T00:39:09.557Z,69.0
2018-09-19T00:40:10.914Z,69.2
2018-09-19T00:41:12.277Z,70.0
2018-09-19T00:42:13.644Z,69.9
2018-09-19T00:43:15.007Z,70.0
2018-09-19T00:44:16.371Z,69.9
2018-09-19T00:45:17.745Z,69.8
2018-09-19T00:46:19.104Z,69.8
2018-09-19T00:47:20.472Z,70.1
2018-09-19T00:48:21.839Z,70.0
2018-09-19T00:49:23.210Z,70.0
2018-09-19T00:50:24.569Z,70.3
2018-09-19T00:51:25.918Z,70.7
2018-09-19T00:52:27.290Z,70.6
2018-09-19T00:53:28.648Z,71.0
2018-09-19T00:54:30.008Z,70.7
2018-09-19T00:55:31.373Z,71.6
2018-09-19T00:56:32.734Z,71.3
2018-09-19T00:57:34.103Z,71.8
2018-09-19T00:58:35.467Z,72.0
2018-09-19T00:59:36.838Z,71.9
2018-09-19T01:00:38.197Z,71.8
2018-09-19T01:01:39.556Z,71.7
2018-09-19T01:02:40.916Z,71.8
2018-09-19T01:03:42.277Z,72.0
2018-09-19T01:04:43.628Z,72.6
2018-09-19T01:05:45.002Z,72.5
2018-09-19T01:06:46.361Z,72.4
2018-09-19T01:07:47.726Z,72.5
2018-09-19T01:08:49.092Z,72.7
2018-09-19T01:09:50.466Z,73.1
2018-09-19T01:10:51.837Z,73.7
2018-09-19T01:11:53.177Z,73.4
2018-09-19T01:12:54.534Z,73.6
2018-09-19T01:13:55.916Z,73.6
2018-09-19T01:14:57.282Z,73.4
2018-09-19T01:15:58.643Z,73.4
2018-09-19T01:17:00.068Z,73.9
2018-09-19T01:18:01.393Z,74.0
2018-09-19T01:19:02.745Z,74.2
2018-09-19T01:20:04.106Z,74.7
2018-09-19T01:21:05.471Z,74.1
2018-09-19T01:22:06.837Z,74.3
2018-09-19T01:23:08.197Z,74.8
2018-09-19T01:24:09.563Z,74.7
2018-09-19T01:25:10.936Z,74.9
2018-09-19T01:26:12.287Z,75.4
2018-09-19T01:27:13.644Z,75.8
2018-09-19T01:28:15.018Z,75.5
2018-09-19T01:29:16.373Z,75.4
2018-09-19T01:30:17.734Z,76.0
2018-09-19T01:31:19.106Z,76.3
2018-09-19T01:32:20.458Z,76.1
2018-09-19T01:33:21.813Z,75.9
2018-09-19T01:34:23.179Z,76.0
2018-09-19T01:35:24.543Z,76.4
2018-09-19T01:36:25.897Z,76.1
2018-09-19T01:37:27.263Z,76.3
2018-09-19T01:38:28.620Z,76.7
2018-09-19T01:39:29.994Z,76.6
2018-09-19T01:40:31.349Z,77.0
2018-09-19T01:41:32.712Z,76.7
2018-09-19T01:42:34.062Z,77.6
2018-09-19T01:43:35.433Z,77.0
2018-09-19T01:44:36.794Z,77.1
2018-09-19T01:45:38.152Z,77.5
2018-09-19T01:46:39.522Z,77.9
2018-09-19T01:47:40.881Z,77.8
2018-09-19T01:48:42.250Z,77.6
2018-09-19T01:49:43.602Z,78.2
2018-09-19T01:50:44.961Z,77.9
2018-09-19T01:51:46.346Z,78.2
2018-09-19T01:52:47.698Z,78.2
2018-09-19T01:53:49.062Z,78.4
2018-09-19T01:54:50.418Z,78.9
2018-09-19T01:55:51.784Z,78.9
2018-09-19T01:56:53.148Z,78.8
2018-09-19T01:57:54.519Z,78.4
2018-09-19T01:58:55.872Z,78.6
2018-09-19T01:59:57.238Z,78.9
2018-09-19T02:00:58.607Z,78.7
2018-09-19T02:01:59.982Z,78.8
2018-09-19T02:03:01.330Z,78.8
2018-09-19T02:04:02.700Z,79.0
2018-09-19T02:05:04.057Z,78.9
2018-09-19T02:06:05.425Z,79.4
2018-09-19T02:07:06.923Z,79.6
2018-09-19T02:08:08.288Z,79.4
2018-09-19T02:09:09.638Z,79.7
2018-09-19T02:10:11.003Z,80.2
2018-09-19T02:11:12.376Z,80.4
2018-09-19T02:12:13.721Z,80.4
2018-09-19T02:13:15.096Z,80.3
2018-09-19T02:14:16.465Z,80.5
2018-09-19T02:15:17.821Z,80.9
2018-09-19T02:16:19.174Z,80.8
2018-09-19T02:17:20.535Z,81.0
2018-09-19T02:18:21.892Z,80.6
2018-09-19T02:19:23.249Z,80.8
2018-09-19T02:20:24.605Z,80.9
2018-09-19T02:21:25.969Z,80.6
2018-09-19T02:22:27.344Z,80.8
2018-09-19T02:23:28.704Z,81.0
2018-09-19T02:24:30.059Z,81.0
2018-09-19T02:25:31.420Z,80.9
2018-09-19T02:26:32.781Z,81.2
2018-09-19T02:27:34.143Z,81.2
2018-09-19T02:28:35.547Z,80.8
2018-09-19T02:29:36.825Z,81.6
2018-09-19T02:30:38.194Z,81.3
2018-09-19T02:31:39.557Z,81.5
2018-09-19T02:32:40.913Z,81.9
2018-09-19T02:33:42.282Z,82.0
2018-09-19T02:34:43.646Z,82.1
2018-09-19T02:35:45.007Z,81.9
2018-09-19T02:36:46.370Z,82.2
2018-09-19T02:37:47.724Z,82.1
2018-09-19T02:38:49.084Z,82.1
2018-09-19T02:39:50.455Z,82.3
2018-09-19T02:40:51.811Z,82.0
2018-09-19T02:41:53.169Z,81.8
2018-09-19T02:42:54.527Z,81.8
2018-09-19T02:43:55.885Z,82.0
2018-09-19T02:44:57.254Z,82.8
2018-09-19T02:45:58.613Z,82.7
2018-09-19T02:46:59.973Z,82.8
2018-09-19T02:48:01.330Z,82.6
2018-09-19T02:49:02.683Z,82.5
2018-09-19T02:50:04.057Z,82.9
2018-09-19T02:51:05.419Z,82.9
2018-09-19T02:52:06.771Z,82.6
2018-09-19T02:53:08.127Z,82.3
2018-09-19T02:54:09.494Z,82.4
2018-09-19T02:55:10.850Z,82.5
2018-09-19T02:56:12.214Z,82.5
2018-09-19T02:57:13.573Z,82.5
2018-09-19T02:58:14.923Z,82.9
2018-09-19T02:59:16.299Z,82.4
2018-09-19T03:00:17.646Z,82.5
2018-09-19T03:01:19.015Z,82.4
2018-09-19T03:02:20.368Z,82.7
2018-09-19T03:03:21.744Z,83.0
2018-09-19T03:04:23.102Z,82.6
2018-09-19T03:05:24.471Z,82.6
2018-09-19T03:06:25.825Z,82.5
2018-09-19T03:07:27.180Z,82.5
2018-09-19T03:08:28.557Z,82.9
2018-09-19T03:09:29.904Z,82.9
2018-09-19T03:10:31.264Z,82.7
2018-09-19T03:11:32.625Z,83.4
2018-09-19T03:12:33.990Z,83.4
2018-09-19T03:13:35.345Z,82.9
2018-09-19T03:14:36.706Z,83.3
2018-09-19T03:15:38.063Z,82.9
2018-09-19T03:16:39.427Z,83.6
2018-09-19T03:17:40.903Z,83.5
2018-09-19T03:18:42.112Z,83.3
2018-09-19T03:19:43.479Z,83.7
2018-09-19T03:20:44.838Z,83.9
2018-09-19T03:21:46.189Z,83.9
2018-09-19T03:22:47.548Z,83.5
2018-09-19T03:23:48.921Z,83.7
2018-09-19T03:24:50.389Z,83.7
2018-09-19T03:25:51.758Z,83.3
2018-09-19T03:26:53.133Z,83.6
2018-09-19T03:27:54.483Z,83.8
2018-09-19T03:28:55.848Z,83.8
2018-09-19T03:29:57.205Z,83.7
2018-09-19T03:30:58.564Z,83.7
2018-09-19T03:31:59.922Z,83.5
2018-09-19T03:33:01.281Z,83.5
2018-09-19T03:34:02.649Z,84.0
2018-09-19T03:35:04.020Z,83.7
2018-09-19T03:36:05.379Z,83.7
2018-09-19T03:37:06.728Z,83.8
2018-09-19T03:38:08.099Z,83.9
2018-09-19T03:39:09.453Z,83.7
2018-09-19T03:40:10.821Z,83.9
2018-09-19T03:41:12.168Z,83.8
2018-09-19T03:42:53.033Z,83.8
2018-09-19T03:43:54.386Z,83.7
2018-09-19T03:45:15.836Z,83.6
2018-09-19T03:46:17.200Z,83.5
2018-09-19T03:47:38.674Z,83.4
2018-09-19T03:48:40.045Z,83.7
2018-09-19T03:50:01.537Z,83.9
2018-09-19T03:51:02.905Z,83.6
2018-09-19T03:52:24.380Z,83.7
2018-09-19T03:53:25.741Z,83.7
2018-09-19T03:54:27.104Z,83.8
2018-09-19T03:55:28.519Z,84.0
2018-09-19T03:56:29.775Z,84.5
2018-09-19T03:57:31.130Z,83.7
2018-09-19T03:58:32.495Z,83.6
2018-09-19T03:59:33.883Z,83.3
2018-09-19T04:00:35.228Z,83.6
2018-09-19T04:01:36.589Z,83.5
2018-09-19T04:02:37.949Z,83.3
2018-09-19T04:03:39.315Z,83.3
2018-09-19T04:04:40.680Z,83.9
2018-09-19T04:05:42.038Z,83.6
2018-09-19T04:06:43.395Z,83.5
2018-09-19T04:07:44.754Z,83.5
2018-09-19T04:08:46.116Z,83.9
2018-09-19T04:09:47.514Z,83.9
2018-09-19T04:10:48.838Z,83.7
2018-09-19T04:11:50.199Z,83.7
2018-09-19T04:12:51.555Z,83.9
2018-09-19T04:13:52.922Z,83.8
2018-09-19T04:14:54.276Z,83.9
2018-09-19T04:15:55.634Z,83.9
2018-09-19T04:16:56.984Z,83.7
2018-09-19T04:17:58.420Z,84.1
2018-09-19T04:18:59.719Z,84.3
2018-09-19T04:20:01.071Z,84.2
2018-09-19T04:21:02.426Z,84.4
2018-09-19T04:22:03.780Z,84.4
2018-09-19T04:23:05.148Z,84.4
2018-09-19T04:24:06.501Z,84.0
2018-09-19T04:25:07.858Z,84.0
2018-09-19T04:26:09.210Z,84.0
2018-09-19T04:27:10.577Z,84.2
2018-09-19T04:28:11.958Z,84.4
2018-09-19T04:29:13.320Z,84.0
2018-09-19T04:30:14.676Z,83.5
2018-09-19T04:31:16.041Z,82.8
2018-09-19T04:32:17.464Z,83.4
2018-09-19T04:33:18.708Z,83.2
2018-09-19T04:34:20.080Z,83.3
2018-09-19T04:35:21.440Z,83.2
2018-09-19T04:36:22.799Z,83.0
2018-09-19T04:37:24.164Z,83.6
2018-09-19T04:38:25.520Z,83.3
2018-09-19T04:39:26.887Z,83.7
2018-09-19T04:40:28.246Z,83.6
2018-09-19T04:41:29.616Z,83.6
2018-09-19T04:42:30.969Z,83.9
2018-09-19T04:43:32.348Z,83.8
2018-09-19T04:44:33.697Z,83.4
2018-09-19T04:45:35.062Z,83.9
2018-09-19T04:46:36.428Z,83.9
2018-09-19T04:47:37.779Z,84.4
2018-09-19T04:48:39.140Z,84.2
2018-09-19T04:49:40.495Z,84.1
2018-09-19T04:50:41.864Z,84.4
2018-09-19T04:51:43.257Z,84.1
2018-09-19T04:52:44.580Z,84.4
2018-09-19T04:53:45.943Z,84.4
2018-09-19T04:54:47.315Z,84.5
2018-09-19T04:55:48.679Z,85.1
2018-09-19T04:56:50.825Z,85.0
2018-09-19T04:57:52.196Z,85.0
2018-09-19T04:58:53.563Z,85.1
2018-09-19T04:59:54.916Z,85.0
2018-09-19T05:00:56.275Z,84.1
2018-09-19T05:01:57.643Z,84.4
2018-09-19T05:02:59.001Z,83.9
2018-09-19T05:04:00.360Z,83.5
2018-09-19T05:05:01.730Z,83.6
2018-09-19T05:06:03.084Z,83.2
2018-09-19T05:07:04.445Z,83.5
2018-09-19T05:08:05.812Z,83.3
2018-09-19T05:09:07.173Z,83.1
2018-09-19T05:10:08.550Z,83.0
2018-09-19T05:11:09.967Z,83.3
2018-09-19T05:12:11.289Z,83.7
2018-09-19T05:13:12.629Z,83.7
2018-09-19T05:14:13.988Z,83.8
2018-09-19T05:15:15.351Z,84.0
2018-09-19T05:16:16.716Z,84.1
2018-09-19T05:17:18.085Z,84.4
2018-09-19T05:18:19.442Z,84.4
2018-09-19T05:19:20.808Z,84.1
2018-09-19T05:20:22.171Z,85.0
2018-09-19T05:21:23.530Z,84.9
2018-09-19T05:22:24.890Z,85.2
2018-09-19T05:23:26.270Z,84.9
2018-09-19T05:24:27.633Z,85.5
2018-09-19T05:25:28.990Z,85.5
2018-09-19T05:26:30.359Z,85.2
2018-09-19T05:27:31.714Z,85.4
2018-09-19T05:28:33.084Z,85.5
2018-09-19T05:29:34.446Z,85.4
2018-09-19T05:30:35.803Z,85.4
2018-09-19T05:31:37.201Z,85.4
2018-09-19T05:32:38.544Z,86.2
2018-09-19T05:33:39.910Z,85.5
2018-09-19T05:34:41.284Z,86.0
2018-09-19T05:35:42.641Z,85.9
2018-09-19T05:36:44.004Z,85.7
2018-09-19T05:37:45.372Z,85.6
2018-09-19T05:38:46.746Z,85.4
2018-09-19T05:39:48.108Z,85.4
2018-09-19T05:40:49.465Z,85.4
2018-09-19T05:41:50.836Z,85.6
2018-09-19T05:42:52.195Z,85.5
2018-09-19T05:43:53.564Z,85.5
2018-09-19T05:44:54.915Z,85.4
2018-09-19T05:45:56.293Z,86.0
2018-09-19T05:46:57.653Z,86.1
2018-09-19T05:47:59.038Z,86.1
2018-09-19T05:49:00.387Z,85.9
2018-09-19T05:50:01.752Z,86.1
2018-09-19T05:51:03.119Z,85.6
2018-09-19T05:52:04.486Z,85.4
2018-09-19T05:53:05.859Z,85.5
2018-09-19T05:54:07.214Z,85.3
2018-09-19T05:55:08.572Z,85.1
2018-09-19T05:56:09.937Z,85.2
2018-09-19T05:57:11.310Z,85.1
2018-09-19T05:58:12.676Z,85.5
2018-09-19T05:59:14.045Z,85.6
2018-09-19T06:00:15.416Z,85.5
2018-09-19T06:01:16.781Z,85.6
2018-09-19T06:02:18.136Z,85.4
2018-09-19T06:03:19.536Z,85.2
2018-09-19T06:04:20.911Z,85.2
2018-09-19T06:05:22.275Z,85.9
2018-09-19T06:06:23.627Z,86.1
2018-09-19T06:07:24.997Z,85.9
2018-09-19T06:08:26.365Z,85.8
2018-09-19T06:09:27.724Z,86.2
2018-09-19T06:10:29.077Z,86.2
2018-09-19T06:11:30.435Z,86.2
2018-09-19T06:12:31.809Z,86.5
2018-09-19T06:13:33.176Z,86.3
2018-09-19T06:14:34.539Z,86.1
2018-09-19T06:15:35.899Z,86.2
2018-09-19T06:16:37.273Z,86.1
2018-09-19T06:17:38.624Z,85.8
2018-09-19T06:18:39.992Z,85.9
2018-09-19T06:19:41.359Z,85.8
2018-09-19T06:20:42.716Z,85.8
2018-09-19T06:21:44.084Z,86.0
2018-09-19T06:22:45.441Z,86.0
2018-09-19T06:23:46.816Z,85.8
2018-09-19T06:24:48.175Z,86.2
2018-09-19T06:25:49.535Z,86.1
2018-09-19T06:26:50.922Z,85.6
2018-09-19T06:27:52.257Z,86.1
2018-09-19T06:28:53.630Z,85.7
2018-09-19T06:29:54.990Z,86.1
2018-09-19T06:30:56.342Z,86.2
2018-09-19T06:31:57.708Z,86.0
2018-09-19T06:32:59.102Z,86.0
2018-09-19T06:34:00.399Z,85.7
2018-09-19T06:35:01.782Z,86.0
2018-09-19T06:36:03.142Z,86.0
2018-09-19T06:37:04.519Z,85.6
2018-09-19T06:38:05.876Z,85.9
2018-09-19T06:39:07.237Z,85.9
2018-09-19T06:40:08.681Z,85.7
2018-09-19T06:41:09.932Z,85.9
2018-09-19T06:42:11.305Z,85.8
2018-09-19T06:43:12.665Z,85.8
2018-09-19T06:44:14.028Z,85.5
2018-09-19T06:45:15.395Z,85.5
2018-09-19T06:46:16.760Z,85.1
2018-09-19T06:47:18.127Z,85.1
2018-09-19T06:48:19.488Z,84.2
2018-09-19T06:49:20.861Z,84.6
2018-09-19T06:50:22.228Z,83.9
2018-09-19T06:51:23.591Z,83.3
2018-09-19T06:52:24.981Z,83.2
2018-09-19T06:53:26.337Z,83.0
2018-09-19T06:54:27.693Z,82.7
2018-09-19T06:55:29.063Z,82.5
2018-09-19T06:56:30.446Z,82.5
2018-09-19T06:57:31.805Z,82.1
2018-09-19T06:58:33.173Z,82.2
2018-09-19T06:59:38.034Z,81.3
2018-09-19T07:00:39.350Z,81.0
2018-09-19T07:01:40.722Z,80.2
2018-09-19T07:02:42.086Z,80.1
2018-09-19T07:03:43.455Z,79.7
2018-09-19T07:04:44.829Z,79.7
2018-09-19T07:05:46.254Z,80.2
2018-09-19T07:06:47.595Z,79.5
2018-09-19T07:07:48.957Z,79.2
2018-09-19T07:08:50.340Z,79.2
2018-09-19T07:09:51.712Z,78.8
2018-09-19T07:10:53.082Z,78.1
2018-09-19T07:11:54.445Z,78.1
2018-09-19T07:12:55.822Z,77.9
2018-09-19T07:13:57.208Z,77.1
2018-09-19T07:14:58.578Z,77.0
2018-09-19T07:15:59.957Z,76.1
2018-09-19T07:17:01.346Z,76.3
2018-09-19T07:18:02.711Z,77.1
2018-09-19T07:19:04.176Z,76.7
2018-09-19T07:20:05.417Z,77.1
2018-09-19T07:21:06.794Z,77.7
2018-09-19T07:22:08.157Z,77.5
2018-09-19T07:23:09.534Z,77.3
2018-09-19T07:24:10.913Z,77.1
2018-09-19T07:25:12.340Z,77.0
2018-09-19T07:26:13.650Z,76.7
2018-09-19T07:27:15.023Z,76.4
2018-09-19T07:28:16.380Z,76.8
2018-09-19T07:29:17.751Z,76.6
2018-09-19T07:30:19.131Z,76.5
2018-09-19T07:31:20.506Z,75.5
2018-09-19T07:32:21.867Z,75.7
2018-09-19T07:33:23.251Z,75.9
2018-09-19T07:34:24.627Z,75.7
2018-09-19T07:35:25.988Z,75.5
2018-09-19T07:36:27.347Z,75.2
2018-09-19T07:37:28.723Z,75.1
2018-09-19T07:38:30.097Z,75.1
2018-09-19T07:39:31.485Z,74.5
2018-09-19T07:40:32.852Z,74.7
2018-09-19T07:41:34.220Z,74.9
2018-09-19T07:42:35.601Z,74.3
2018-09-19T07:43:36.970Z,74.0
2018-09-19T07:44:38.341Z,73.7
2018-09-19T07:45:39.717Z,73.6
2018-09-19T07:46:41.125Z,73.3
2018-09-19T07:47:42.471Z,73.4
2018-09-19T07:48:43.855Z,72.9
2018-09-19T07:49:45.219Z,72.3
2018-09-19T07:50:46.581Z,72.3
2018-09-19T07:51:47.956Z,72.8
2018-09-19T07:52:49.342Z,72.1
2018-09-19T07:53:50.713Z,71.9
2018-09-19T07:54:52.072Z,71.3
2018-09-19T07:55:53.457Z,70.9
2018-09-19T07:56:54.826Z,70.8
2018-09-19T07:57:56.206Z,70.2
2018-09-19T07:58:57.575Z,69.7
2018-09-19T07:59:58.951Z,69.4
2018-09-19T08:01:00.380Z,69.2
2018-09-19T08:02:01.685Z,69.1
2018-09-19T08:03:03.101Z,68.2
2018-09-19T08:04:04.473Z,68.1
2018-09-19T08:05:05.862Z,68.5
2018-09-19T08:06:07.222Z,67.9
2018-09-19T08:07:08.597Z,68.3
2018-09-19T08:08:09.965Z,68.0
2018-09-19T08:09:11.457Z,68.3
2018-09-19T08:10:12.723Z,67.7
2018-09-19T08:11:14.119Z,67.7
2018-09-19T08:12:15.481Z,67.6
2018-09-19T08:13:16.855Z,68.0
2018-09-19T08:14:18.230Z,66.7
2018-09-19T08:15:19.593Z,66.4
2018-09-19T08:16:20.982Z,66.2
2018-09-19T08:17:22.357Z,66.3
2018-09-19T08:18:23.736Z,66.4
2018-09-19T08:19:25.107Z,65.8
2018-09-19T08:20:26.483Z,65.6
2018-09-19T08:21:27.851Z,65.9
2018-09-19T08:22:29.256Z,65.6
2018-09-19T08:23:30.602Z,65.5
2018-09-19T08:24:31.977Z,66.0
2018-09-19T08:25:33.358Z,66.3
2018-09-19T08:26:34.739Z,65.6
2018-09-19T08:27:36.154Z,65.9
2018-09-19T08:28:37.527Z,65.3
2018-09-19T08:29:38.902Z,64.9
2018-09-19T08:30:40.283Z,65.1
2018-09-19T08:31:41.659Z,64.6
2018-09-19T08:32:43.041Z,64.7
2018-09-19T08:33:44.422Z,64.6
2018-09-19T08:34:45.787Z,64.5
2018-09-19T08:35:47.173Z,64.3
2018-09-19T08:36:48.547Z,64.7
2018-09-19T08:37:49.926Z,64.7
2018-09-19T08:38:52.245Z,64.6
2018-09-19T08:39:53.633Z,64.6
2018-09-19T08:40:55.007Z,64.7
2018-09-19T08:41:56.381Z,64.9
2018-09-19T08:42:57.758Z,64.8
2018-09-19T08:43:59.142Z,64.4
2018-09-19T08:45:00.514Z,64.5
2018-09-19T08:46:01.887Z,63.6
2018-09-19T08:47:03.269Z,63.7
2018-09-19T08:48:04.645Z,63.8
2018-09-19T08:49:06.031Z,63.6
2018-09-19T08:50:07.402Z,63.4
2018-09-19T08:51:08.771Z,63.0
2018-09-19T08:52:10.155Z,62.6
2018-09-19T08:53:11.558Z,62.3
2018-09-19T08:54:12.931Z,62.7
2018-09-19T08:55:14.291Z,62.6
2018-09-19T08:56:15.717Z,62.6
2018-09-19T08:57:17.042Z,62.5
2018-09-19T08:58:18.426Z,62.0
2018-09-19T08:59:19.843Z,61.9
2018-09-19T09:00:21.211Z,61.6
2018-09-19T09:01:22.579Z,60.7
2018-09-19T09:02:23.956Z,60.5
2018-09-19T09:03:25.336Z,60.8
2018-09-19T09:04:26.715Z,60.6
2018-09-19T09:05:28.162Z,60.9
2018-09-19T09:06:29.432Z,60.4
2018-09-19T09:07:30.812Z,59.9
2018-09-19T09:08:32.182Z,59.6
2018-09-19T09:09:33.557Z,59.7
2018-09-19T09:10:34.933Z,60.0
2018-09-19T09:11:36.311Z,59.4
2018-09-19T09:12:37.715Z,59.3
2018-09-19T09:13:39.070Z,59.1
2018-09-19T09:14:40.452Z,59.0
2018-09-19T09:15:41.817Z,59.2
2018-09-19T09:16:43.198Z,59.0
2018-09-19T09:17:44.586Z,59.0
2018-09-19T09:18:45.965Z,58.9
2018-09-19T09:19:47.392Z,58.6
2018-09-19T09:20:48.752Z,58.4
2018-09-19T09:21:50.125Z,57.7
2018-09-19T09:22:51.501Z,57.6
2018-09-19T09:23:52.877Z,57.6
2018-09-19T09:24:54.269Z,56.9
2018-09-19T09:25:55.650Z,56.9
2018-09-19T09:26:57.055Z,56.9
2018-09-19T09:27:58.402Z,56.9
2018-09-19T09:28:59.805Z,57.1
2018-09-19T09:30:01.186Z,56.8
2018-09-19T09:31:02.574Z,56.8
2018-09-19T09:32:03.959Z,56.6
2018-09-19T09:33:05.337Z,56.1
2018-09-19T09:34:06.778Z,57.1
2018-09-19T09:35:08.057Z,57.2
2018-09-19T09:36:09.437Z,56.2
2018-09-19T09:37:10.817Z,55.9
2018-09-19T09:38:12.186Z,56.6
2018-09-19T09:39:13.565Z,55.9
2018-09-19T09:40:14.986Z,56.2
2018-09-19T09:41:16.332Z,56.5
2018-09-19T09:42:17.716Z,56.0
2018-09-19T09:43:58.565Z,55.6
2018-09-19T09:44:59.949Z,56.1
2018-09-19T09:46:01.395Z,56.3
2018-09-19T09:47:02.663Z,56.0
2018-09-19T09:48:04.038Z,55.9
2018-09-19T09:49:05.418Z,55.6
2018-09-19T09:50:06.793Z,55.2
2018-09-19T09:51:08.188Z,55.1
2018-09-19T09:52:09.566Z,55.4
2018-09-19T09:53:10.988Z,55.4
2018-09-19T09:54:12.322Z,54.9
2018-09-19T09:55:13.736Z,54.4
2018-09-19T09:56:15.136Z,54.0
2018-09-19T09:57:16.513Z,54.2
2018-09-19T09:58:17.893Z,54.5
2018-09-19T09:59:19.278Z,54.5
2018-09-19T10:00:20.667Z,54.3
2018-09-19T10:01:22.045Z,54.2
2018-09-19T10:02:23.419Z,53.8
2018-09-19T10:03:24.803Z,53.7
2018-09-19T10:04:26.192Z,53.2
2018-09-19T10:05:27.567Z,52.9
2018-09-19T10:06:28.986Z,52.4
2018-09-19T10:07:30.327Z,52.6
2018-09-19T10:08:31.706Z,51.9
2018-09-19T10:09:33.078Z,51.8
2018-09-19T10:10:34.465Z,51.5
2018-09-19T10:11:35.853Z,51.4
2018-09-19T10:12:37.239Z,50.9
2018-09-19T10:13:38.659Z,50.7
2018-09-19T10:14:39.972Z,50.5
2018-09-19T10:15:41.358Z,50.7
2018-09-19T10:16:42.751Z,50.3
2018-09-19T10:17:44.171Z,50.2
2018-09-19T10:18:45.632Z,50.1
2018-09-19T10:19:47.059Z,49.8
2018-09-19T10:20:48.439Z,50.2
2018-09-19T10:21:49.826Z,50.7
2018-09-19T10:22:51.223Z,50.5
2018-09-19T10:23:52.610Z,50.2
2018-09-19T10:24:53.991Z,50.3
2018-09-19T10:25:55.419Z,49.9
2018-09-19T10:26:56.788Z,49.6
2018-09-19T10:27:58.184Z,49.3
2018-09-19T10:28:59.636Z,49.1
2018-09-19T10:30:01.016Z,49.0
2018-09-19T10:31:02.399Z,48.7
2018-09-19T10:32:03.777Z,48.5
2018-09-19T10:33:05.158Z,48.2
2018-09-19T10:34:06.548Z,47.9
2018-09-19T10:35:07.934Z,48.0
2018-09-19T10:36:09.309Z,48.1
2018-09-19T10:37:10.695Z,47.6
2018-09-19T10:38:12.079Z,47.8
2018-09-19T10:39:13.465Z,48.1
2018-09-19T10:40:14.904Z,48.7
2018-09-19T10:41:16.282Z,48.6
2018-09-19T10:42:17.672Z,48.5
2018-09-19T10:43:19.056Z,48.2
2018-09-19T10:44:20.457Z,48.0
2018-09-19T10:45:21.832Z,48.0
2018-09-19T10:46:23.218Z,47.7
2018-09-19T10:47:24.607Z,47.8
2018-09-19T10:48:25.992Z,47.1
2018-09-19T10:49:27.393Z,46.8
2018-09-19T10:50:28.764Z,46.4
2018-09-19T10:51:30.148Z,46.5
2018-09-19T10:52:31.527Z,46.2
2018-09-19T10:53:32.908Z,46.6
2018-09-19T10:54:34.298Z,46.6
2018-09-19T10:55:35.679Z,46.0
2018-09-19T10:56:37.064Z,45.8
2018-09-19T10:57:38.449Z,45.9
2018-09-19T10:58:39.817Z,45.9
2018-09-19T10:59:41.207Z,46.0
2018-09-19T11:00:42.579Z,45.9
2018-09-19T11:01:43.968Z,45.7
2018-09-19T11:02:45.359Z,45.5
2018-09-19T11:03:46.767Z,45.4
2018-09-19T11:04:48.118Z,45.5
2018-09-19T11:05:49.504Z,45.1
2018-09-19T11:06:50.908Z,44.9
2018-09-19T11:07:52.288Z,44.8
2018-09-19T11:08:53.691Z,44.4
2018-09-19T11:09:55.079Z,44.3
2018-09-19T11:10:56.446Z,44.6
2018-09-19T11:11:57.826Z,44.3
2018-09-19T11:12:59.216Z,43.8
2018-09-19T11:14:00.603Z,44.2
2018-09-19T11:15:01.973Z,44.4
2018-09-19T11:16:03.365Z,44.5
2018-09-19T11:17:04.820Z,44.6
2018-09-19T11:18:06.123Z,44.8
2018-09-19T11:19:07.501Z,44.3
2018-09-19T11:20:08.893Z,44.4
2018-09-19T11:21:10.277Z,44.4
2018-09-19T11:22:11.669Z,43.8
2018-09-19T11:23:13.062Z,43.5
2018-09-19T11:24:14.438Z,43.1
2018-09-19T11:25:15.826Z,43.3
2018-09-19T11:26:17.246Z,43.1
2018-09-19T11:27:18.601Z,42.8
2018-09-19T11:28:19.997Z,42.8
2018-09-19T11:29:21.389Z,42.8
2018-09-19T11:30:22.768Z,42.9
2018-09-19T11:31:24.153Z,42.7
2018-09-19T11:32:25.537Z,42.7
2018-09-19T11:33:26.920Z,42.6
2018-09-19T11:34:28.298Z,41.9
2018-09-19T11:35:29.703Z,41.9
2018-09-19T11:36:31.078Z,42.2
2018-09-19T11:37:32.461Z,42.1
2018-09-19T11:38:33.852Z,42.0
2018-09-19T11:39:35.234Z,42.1
2018-09-19T11:40:36.630Z,41.9
2018-09-19T11:41:38.008Z,41.9
2018-09-19T11:42:39.399Z,42.2
2018-09-19T11:43:40.788Z,41.5
2018-09-19T11:44:42.180Z,41.9
2018-09-19T11:45:43.567Z,41.9
2018-09-19T11:46:44.959Z,41.5
2018-09-19T11:47:46.384Z,41.2
2018-09-19T11:48:47.788Z,41.0
2018-09-19T11:49:49.329Z,41.2
2018-09-19T11:50:50.724Z,41.0
2018-09-19T11:51:52.128Z,40.8
2018-09-19T11:52:53.514Z,41.1
2018-09-19T11:53:54.889Z,40.7
2018-09-19T11:54:56.267Z,40.8
2018-09-19T11:55:57.657Z,40.2
2018-09-19T11:56:59.040Z,40.6
2018-09-19T11:58:00.431Z,40.2
2018-09-19T11:59:01.813Z,40.2
2018-09-19T12:00:03.195Z,40.4
2018-09-19T12:01:04.576Z,40.1
2018-09-19T12:02:06.002Z,40.2
2018-09-19T12:03:07.337Z,39.6
2018-09-19T12:04:08.723Z,39.8
2018-09-19T12:05:10.109Z,39.6
2018-09-19T12:06:11.489Z,39.5
2018-09-19T12:07:12.914Z,39.2
2018-09-19T12:08:14.255Z,39.5
2018-09-19T12:09:15.632Z,39.2
2018-09-19T12:10:17.023Z,39.2
2018-09-19T12:11:18.429Z,39.2
2018-09-19T12:12:19.804Z,39.1
2018-09-19T12:13:21.184Z,38.8
2018-09-19T12:14:22.569Z,38.6
2018-09-19T12:15:23.943Z,38.5
2018-09-19T12:16:25.323Z,38.6
2018-09-19T12:17:26.714Z,38.2
2018-09-19T12:18:28.092Z,38.5
2018-09-19T12:19:29.507Z,38.5
2018-09-19T12:20:30.871Z,38.4
2018-09-19T12:21:32.253Z,38.3
2018-09-19T12:22:33.642Z,37.9
2018-09-19T12:23:35.030Z,38.2
2018-09-19T12:24:36.413Z,38.1
2018-09-19T12:25:37.792Z,38.0
2018-09-19T12:26:39.251Z,38.0
2018-09-19T12:27:40.524Z,38.2
2018-09-19T12:28:41.909Z,38.1
2018-09-19T12:29:43.290Z,37.9
2018-09-19T12:30:44.703Z,37.8
2018-09-19T12:31:46.119Z,37.4
2018-09-19T12:32:47.498Z,38.0
2018-09-19T12:33:48.875Z,37.7
2018-09-19T12:34:50.260Z,38.1
2018-09-19T12:35:51.639Z,37.9
2018-09-19T12:36:53.021Z,38.1
2018-09-19T12:37:54.397Z,38.3
2018-09-19T12:38:55.798Z,38.2
2018-09-19T12:39:57.179Z,38.4
2018-09-19T12:40:58.562Z,38.3
2018-09-19T12:41:59.949Z,38.4
2018-09-19T12:43:01.328Z,37.9
2018-09-19T12:44:02.704Z,38.1
2018-09-19T12:45:04.084Z,37.7
2018-09-19T12:46:05.473Z,37.7
2018-09-19T12:47:06.853Z,37.8
2018-09-19T12:48:08.238Z,37.9
2018-09-19T12:49:09.654Z,37.8
2018-09-19T12:50:10.973Z,38.1
2018-09-19T12:51:12.360Z,37.9
2018-09-19T12:52:13.733Z,38.0
2018-09-19T12:53:15.806Z,37.9
2018-09-19T12:54:17.162Z,37.9
2018-09-19T12:55:18.557Z,38.1
2018-09-19T12:56:19.939Z,37.9
2018-09-19T12:57:21.322Z,37.8
2018-09-19T12:58:22.698Z,37.7
2018-09-19T12:59:24.091Z,38.2
2018-09-19T13:00:25.469Z,38.1
2018-09-19T13:01:26.848Z,37.7
2018-09-19T13:02:28.214Z,37.6
2018-09-19T13:03:29.604Z,37.5
2018-09-19T13:04:30.974Z,37.7
2018-09-19T13:05:32.368Z,37.6
2018-09-19T13:06:33.750Z,37.6
2018-09-19T13:07:35.123Z,37.7
2018-09-19T13:08:36.524Z,37.6
2018-09-19T13:09:37.889Z,37.9
2018-09-19T13:10:39.281Z,37.9
2018-09-19T13:11:40.676Z,37.9
2018-09-19T13:12:42.049Z,37.9
2018-09-19T13:13:43.422Z,37.5
2018-09-19T13:14:44.843Z,37.5
2018-09-19T13:15:46.269Z,37.2
2018-09-19T13:16:47.668Z,36.9
2018-09-19T13:17:49.045Z,37.2
2018-09-19T13:18:50.430Z,37.5
2018-09-19T13:19:51.818Z,37.7
2018-09-19T13:20:53.194Z,37.7
2018-09-19T13:21:54.569Z,37.9
2018-09-19T13:22:55.946Z,37.7
2018-09-19T13:23:57.343Z,38.1
2018-09-19T13:24:58.716Z,38.0
2018-09-19T13:26:00.104Z,37.8
2018-09-19T13:27:01.488Z,38.2
2018-09-19T13:28:02.861Z,37.5
2018-09-19T13:29:07.218Z,37.5
2018-09-19T13:30:08.613Z,37.5
2018-09-19T13:31:09.983Z,37.6
2018-09-19T13:32:11.369Z,37.2
2018-09-19T13:33:12.759Z,37.2
2018-09-19T13:34:14.129Z,37.2
2018-09-19T13:35:15.504Z,37.2
2018-09-19T13:36:16.881Z,37.1
2018-09-19T13:37:18.265Z,36.8
2018-09-19T13:38:19.680Z,36.8
2018-09-19T13:39:21.055Z,37.0